sensor_id;sensor_type;location;lat;lon;timestamp;pressure;altitude;pressure_sealevel;temperature;humidity
37892;BME280;45797;47.466;9.486;2022-11-11T00:02:17;97167.91;;;9.96;75.40
37892;BME280;45797;47.466;9.486;2022-11-11T00:07:40;97160.22;;;10.11;75.21
37892;BME280;45797;47.466;9.486;2022-11-11T00:13:03;97161.44;;;10.22;75.27
37892;BME280;45797;47.466;9.486;2022-11-11T00:18:42;97158.69;;;10.25;74.71
37892;BME280;45797;47.466;9.486;2022-11-11T00:24:32;97160.03;;;10.34;74.59
37892;BME280;45797;47.466;9.486;2022-11-11T00:30:10;97163.81;;;10.46;74.51
37892;BME280;45797;47.466;9.486;2022-11-11T00:35:31;97164.88;;;10.59;74.41
37892;BME280;45797;47.466;9.486;2022-11-11T00:41:22;97174.06;;;10.68;74.04
37892;BME280;45797;47.466;9.486;2022-11-11T00:46:44;97172.59;;;10.79;74.25
37892;BME280;45797;47.466;9.486;2022-11-11T00:52:21;97172.28;;;10.85;74.03
37892;BME280;45797;47.466;9.486;2022-11-11T00:57:53;97159.94;;;10.87;73.78
37892;BME280;45797;47.466;9.486;2022-11-11T01:03:19;97143.38;;;10.87;74.10
37892;BME280;45797;47.466;9.486;2022-11-11T01:08:40;97150.22;;;10.90;74.39
37892;BME280;45797;47.466;9.486;2022-11-11T01:14:10;97148.94;;;10.81;74.17
37892;BME280;45797;47.466;9.486;2022-11-11T01:19:29;97145.31;;;10.83;74.17
37892;BME280;45797;47.466;9.486;2022-11-11T01:24:50;97155.53;;;10.88;74.50
37892;BME280;45797;47.466;9.486;2022-11-11T01:30:10;97158.25;;;10.86;73.95
37892;BME280;45797;47.466;9.486;2022-11-11T01:35:37;97164.34;;;10.87;74.32
37892;BME280;45797;47.466;9.486;2022-11-11T01:41:09;97155.78;;;10.83;74.28
37892;BME280;45797;47.466;9.486;2022-11-11T01:46:57;97138.47;;;10.81;74.37
37892;BME280;45797;47.466;9.486;2022-11-11T01:52:26;97121.91;;;10.80;74.29
37892;BME280;45797;47.466;9.486;2022-11-11T01:58:03;97136.06;;;10.76;74.48
37892;BME280;45797;47.466;9.486;2022-11-11T02:03:26;97151.47;;;10.82;74.30
37892;BME280;45797;47.466;9.486;2022-11-11T02:08:47;97162.91;;;10.81;74.77
37892;BME280;45797;47.466;9.486;2022-11-11T02:14:07;97174.31;;;10.80;74.83
37892;BME280;45797;47.466;9.486;2022-11-11T02:19:57;97193.53;;;10.79;74.30
37892;BME280;45797;47.466;9.486;2022-11-11T02:25:21;97201.34;;;10.81;74.64
37892;BME280;45797;47.466;9.486;2022-11-11T02:30:45;97211.97;;;10.78;74.80
37892;BME280;45797;47.466;9.486;2022-11-11T02:36:04;97204.19;;;10.76;74.71
37892;BME280;45797;47.466;9.486;2022-11-11T02:41:23;97205.19;;;10.74;74.41
37892;BME280;45797;47.466;9.486;2022-11-11T02:47:17;97212.13;;;10.75;74.70
37892;BME280;45797;47.466;9.486;2022-11-11T02:52:36;97195.41;;;10.77;74.63
37892;BME280;45797;47.466;9.486;2022-11-11T02:57:56;97205.88;;;10.77;74.92
37892;BME280;45797;47.466;9.486;2022-11-11T03:03:17;97219.72;;;10.81;74.82
37892;BME280;45797;47.466;9.486;2022-11-11T03:08:36;97227.56;;;10.81;74.81
37892;BME280;45797;47.466;9.486;2022-11-11T03:14:03;97240.44;;;10.85;74.49
37892;BME280;45797;47.466;9.486;2022-11-11T03:19:30;97244.81;;;10.85;74.49
37892;BME280;45797;47.466;9.486;2022-11-11T03:24:50;97250.91;;;10.85;74.88
37892;BME280;45797;47.466;9.486;2022-11-11T03:30:40;97261.56;;;10.82;74.56
37892;BME280;45797;47.466;9.486;2022-11-11T03:35:59;97248.53;;;10.81;74.55
37892;BME280;45797;47.466;9.486;2022-11-11T03:41:18;97257.25;;;10.81;74.74
37892;BME280;45797;47.466;9.486;2022-11-11T03:46:38;97262.31;;;10.84;74.46
37892;BME280;45797;47.466;9.486;2022-11-11T03:51:57;97261.56;;;10.82;74.57
37892;BME280;45797;47.466;9.486;2022-11-11T03:57:21;97268.50;;;10.83;74.71
37892;BME280;45797;47.466;9.486;2022-11-11T04:03:11;97280.03;;;10.79;74.43
37892;BME280;45797;47.466;9.486;2022-11-11T04:09:08;97287.00;;;10.80;74.52
37892;BME280;45797;47.466;9.486;2022-11-11T04:14:48;97289.53;;;10.82;74.27
37892;BME280;45797;47.466;9.486;2022-11-11T04:20:41;97295.75;;;10.79;74.67
37892;BME280;45797;47.466;9.486;2022-11-11T04:26:20;97300.22;;;10.77;74.58
37892;BME280;45797;47.466;9.486;2022-11-11T04:32:11;97297.69;;;10.76;74.46
37892;BME280;45797;47.466;9.486;2022-11-11T04:37:50;97313.56;;;10.73;74.62
37892;BME280;45797;47.466;9.486;2022-11-11T04:43:10;97317.13;;;10.72;74.89
37892;BME280;45797;47.466;9.486;2022-11-11T04:48:35;97314.41;;;10.73;74.41
37892;BME280;45797;47.466;9.486;2022-11-11T04:54:00;97297.84;;;10.73;74.48
37892;BME280;45797;47.466;9.486;2022-11-11T04:59:19;97296.19;;;10.70;74.82
37892;BME280;45797;47.466;9.486;2022-11-11T05:04:38;97293.66;;;10.69;74.54
37892;BME280;45797;47.466;9.486;2022-11-11T05:10:16;97297.44;;;10.63;74.30
37892;BME280;45797;47.466;9.486;2022-11-11T05:15:35;97302.56;;;10.47;75.26
37892;BME280;45797;47.466;9.486;2022-11-11T05:21:31;97297.59;;;10.41;74.93
37892;BME280;45797;47.466;9.486;2022-11-11T05:27:02;97284.00;;;10.14;75.13
37892;BME280;45797;47.466;9.486;2022-11-11T05:32:22;97285.75;;;9.95;75.34
37892;BME280;45797;47.466;9.486;2022-11-11T05:37:43;97283.75;;;9.81;76.23
37892;BME280;45797;47.466;9.486;2022-11-11T05:43:22;97289.38;;;9.72;75.99
37892;BME280;45797;47.466;9.486;2022-11-11T05:48:50;97304.78;;;9.59;75.45
37892;BME280;45797;47.466;9.486;2022-11-11T05:54:27;97330.66;;;9.45;75.88
37892;BME280;45797;47.466;9.486;2022-11-11T05:59:47;97353.94;;;9.31;76.33
37892;BME280;45797;47.466;9.486;2022-11-11T06:05:21;97380.41;;;9.23;76.12
37892;BME280;45797;47.466;9.486;2022-11-11T06:10:40;97405.88;;;9.18;76.28
37892;BME280;45797;47.466;9.486;2022-11-11T06:16:18;97411.94;;;9.19;76.03
37892;BME280;45797;47.466;9.486;2022-11-11T06:21:38;97418.53;;;9.29;76.14
37892;BME280;45797;47.466;9.486;2022-11-11T06:27:15;97391.09;;;9.39;76.02
37892;BME280;45797;47.466;9.486;2022-11-11T06:32:35;97401.94;;;9.50;75.86
37892;BME280;45797;47.466;9.486;2022-11-11T06:37:55;97424.06;;;9.63;75.08
37892;BME280;45797;47.466;9.486;2022-11-11T06:43:15;97420.06;;;9.75;74.68
37892;BME280;45797;47.466;9.486;2022-11-11T06:48:36;97429.97;;;9.89;74.75
37892;BME280;45797;47.466;9.486;2022-11-11T06:54:01;97422.75;;;9.94;74.71
37892;BME280;45797;47.466;9.486;2022-11-11T06:59:20;97423.34;;;10.00;74.62
37892;BME280;45797;47.466;9.486;2022-11-11T07:04:39;97418.69;;;10.07;74.64
37892;BME280;45797;47.466;9.486;2022-11-11T07:09:58;97455.81;;;10.17;74.36
37892;BME280;45797;47.466;9.486;2022-11-11T07:15:18;97467.69;;;10.25;74.14
37892;BME280;45797;47.466;9.486;2022-11-11T07:20:37;97469.91;;;10.35;74.20
37892;BME280;45797;47.466;9.486;2022-11-11T07:26:06;97474.00;;;10.40;73.80
37892;BME280;45797;47.466;9.486;2022-11-11T07:31:25;97484.06;;;10.49;73.83
37892;BME280;45797;47.466;9.486;2022-11-11T07:36:46;97484.41;;;10.62;74.18
37892;BME280;45797;47.466;9.486;2022-11-11T07:42:04;97484.31;;;10.64;73.53
37892;BME280;45797;47.466;9.486;2022-11-11T07:47:25;97486.63;;;10.71;73.62
37892;BME280;45797;47.466;9.486;2022-11-11T07:52:48;97479.19;;;10.81;73.13
37892;BME280;45797;47.466;9.486;2022-11-11T07:58:08;97470.00;;;10.90;73.63
37892;BME280;45797;47.466;9.486;2022-11-11T08:03:37;97457.28;;;11.01;73.00
37892;BME280;45797;47.466;9.486;2022-11-11T08:09:18;97458.91;;;11.03;72.49
37892;BME280;45797;47.466;9.486;2022-11-11T08:14:36;97467.97;;;11.15;73.12
37892;BME280;45797;47.466;9.486;2022-11-11T08:20:08;97465.22;;;11.18;72.07
37892;BME280;45797;47.466;9.486;2022-11-11T08:25:27;97476.16;;;11.26;72.33
37892;BME280;45797;47.466;9.486;2022-11-11T08:30:56;97454.72;;;11.18;72.93
37892;BME280;45797;47.466;9.486;2022-11-11T08:36:15;97455.94;;;10.92;73.24
37892;BME280;45797;47.466;9.486;2022-11-11T08:41:34;97454.66;;;11.01;73.67
37892;BME280;45797;47.466;9.486;2022-11-11T08:46:53;97460.19;;;10.95;73.08
37892;BME280;45797;47.466;9.486;2022-11-11T08:52:20;97465.00;;;10.85;73.60
37892;BME280;45797;47.466;9.486;2022-11-11T08:57:41;97463.31;;;10.84;73.67
37892;BME280;45797;47.466;9.486;2022-11-11T09:03:02;97464.66;;;10.93;73.39
37892;BME280;45797;47.466;9.486;2022-11-11T09:08:22;97471.09;;;11.04;73.26
37892;BME280;45797;47.466;9.486;2022-11-11T09:13:44;97484.28;;;11.03;72.57
37892;BME280;45797;47.466;9.486;2022-11-11T09:19:05;97486.13;;;11.01;73.72
37892;BME280;45797;47.466;9.486;2022-11-11T09:24:24;97496.19;;;10.91;73.62
37892;BME280;45797;47.466;9.486;2022-11-11T09:29:44;97495.97;;;10.96;73.39
37892;BME280;45797;47.466;9.486;2022-11-11T09:35:03;97498.31;;;11.02;73.55
37892;BME280;45797;47.466;9.486;2022-11-11T09:40:24;97492.56;;;11.12;73.13
37892;BME280;45797;47.466;9.486;2022-11-11T09:51:29;97489.78;;;11.15;73.00
37892;BME280;45797;47.466;9.486;2022-11-11T09:56:49;97479.47;;;11.12;73.56
37892;BME280;45797;47.466;9.486;2022-11-11T10:02:34;97474.91;;;11.16;72.89
37892;BME280;45797;47.466;9.486;2022-11-11T10:08:08;97476.31;;;11.23;72.80
37892;BME280;45797;47.466;9.486;2022-11-11T10:13:34;97466.22;;;11.52;72.40
37892;BME280;45797;47.466;9.486;2022-11-11T10:24:40;97456.13;;;11.61;72.00
37892;BME280;45797;47.466;9.486;2022-11-11T10:30:19;97454.41;;;11.60;72.14
37892;BME280;45797;47.466;9.486;2022-11-11T10:35:59;97444.59;;;11.64;72.06
37892;BME280;45797;47.466;9.486;2022-11-11T10:41:38;97437.91;;;11.76;71.83
37892;BME280;45797;47.466;9.486;2022-11-11T10:53:04;97434.16;;;11.81;71.79
37892;BME280;45797;47.466;9.486;2022-11-11T10:58:53;97426.56;;;11.92;71.32
37892;BME280;45797;47.466;9.486;2022-11-11T11:04:20;97416.50;;;12.35;70.39
37892;BME280;45797;47.466;9.486;2022-11-11T11:15:24;97409.13;;;12.42;70.61
37892;BME280;45797;47.466;9.486;2022-11-11T11:21:11;97413.38;;;12.44;70.52
37892;BME280;45797;47.466;9.486;2022-11-11T11:26:55;97402.19;;;12.56;70.30
37892;BME280;45797;47.466;9.486;2022-11-11T11:32:27;97399.44;;;12.91;69.73
37892;BME280;45797;47.466;9.486;2022-11-11T11:37:49;97404.88;;;13.20;69.09
37892;BME280;45797;47.466;9.486;2022-11-11T11:43:36;97395.22;;;13.20;69.13
37892;BME280;45797;47.466;9.486;2022-11-11T11:55:12;97388.50;;;13.30;69.09
37892;BME280;45797;47.466;9.486;2022-11-11T12:00:40;97380.38;;;13.49;68.97
37892;BME280;45797;47.466;9.486;2022-11-11T12:17:25;97381.88;;;13.83;68.36
37892;BME280;45797;47.466;9.486;2022-11-11T12:50:50;97384.16;;;13.29;69.39
37892;BME280;45797;47.466;9.486;2022-11-11T13:13:50;97384.16;;;12.98;69.58
37892;BME280;45797;47.466;9.486;2022-11-11T13:19:34;97381.44;;;12.99;69.50
37892;BME280;45797;47.466;9.486;2022-11-11T13:24:55;97379.81;;;13.12;69.57
37892;BME280;45797;47.466;9.486;2022-11-11T13:36:17;97379.81;;;13.12;69.31
37892;BME280;45797;47.466;9.486;2022-11-11T13:41:40;97383.19;;;13.14;69.08
37892;BME280;45797;47.466;9.486;2022-11-11T13:47:03;97374.91;;;13.22;69.34
37892;BME280;45797;47.466;9.486;2022-11-11T13:52:27;97385.53;;;13.21;68.92
37892;BME280;45797;47.466;9.486;2022-11-11T13:57:58;97379.31;;;13.06;69.38
37892;BME280;45797;47.466;9.486;2022-11-11T14:19:49;97373.97;;;12.60;70.41
37892;BME280;45797;47.466;9.486;2022-11-11T14:25:16;97385.34;;;12.61;70.36
37892;BME280;45797;47.466;9.486;2022-11-11T14:30:39;97391.50;;;12.59;70.31
37892;BME280;45797;47.466;9.486;2022-11-11T14:41:52;97397.78;;;12.57;70.34
37892;BME280;45797;47.466;9.486;2022-11-11T14:52:57;97385.84;;;12.67;70.10
37892;BME280;45797;47.466;9.486;2022-11-11T14:58:33;97384.22;;;12.65;70.06
37892;BME280;45797;47.466;9.486;2022-11-11T15:03:55;97377.78;;;12.54;70.60
37892;BME280;45797;47.466;9.486;2022-11-11T15:15:47;97380.63;;;12.34;70.58
37892;BME280;45797;47.466;9.486;2022-11-11T15:21:37;97370.63;;;12.25;70.87
37892;BME280;45797;47.466;9.486;2022-11-11T15:27:26;97370.53;;;12.26;70.75
37892;BME280;45797;47.466;9.486;2022-11-11T15:33:03;97366.38;;;12.22;70.69
37892;BME280;45797;47.466;9.486;2022-11-11T15:38:29;97365.13;;;12.12;71.30
37892;BME280;45797;47.466;9.486;2022-11-11T15:43:48;97355.19;;;12.01;71.12
37892;BME280;45797;47.466;9.486;2022-11-11T15:49:37;97353.47;;;11.85;71.28
37892;BME280;45797;47.466;9.486;2022-11-11T15:54:58;97361.84;;;11.74;71.64
37892;BME280;45797;47.466;9.486;2022-11-11T16:05:42;97364.13;;;11.47;72.05
37892;BME280;45797;47.466;9.486;2022-11-11T16:11:03;97363.84;;;11.34;72.48
37892;BME280;45797;47.466;9.486;2022-11-11T16:16:31;97356.69;;;11.21;72.76
37892;BME280;45797;47.466;9.486;2022-11-11T16:27:23;97353.63;;;10.94;73.19
37892;BME280;45797;47.466;9.486;2022-11-11T16:32:54;97344.94;;;10.74;73.16
37892;BME280;45797;47.466;9.486;2022-11-11T16:38:36;97360.59;;;10.57;73.31
37892;BME280;45797;47.466;9.486;2022-11-11T16:43:58;97364.41;;;10.50;73.57
37892;BME280;45797;47.466;9.486;2022-11-11T16:54:54;97382.66;;;10.33;73.69
37892;BME280;45797;47.466;9.486;2022-11-11T17:00:18;97395.13;;;10.27;73.73
37892;BME280;45797;47.466;9.486;2022-11-11T17:05:51;97393.50;;;10.25;73.78
37892;BME280;45797;47.466;9.486;2022-11-11T17:11:43;97401.22;;;10.28;73.41
37892;BME280;45797;47.466;9.486;2022-11-11T17:17:06;97399.69;;;10.43;73.24
37892;BME280;45797;47.466;9.486;2022-11-11T17:22:45;97395.78;;;10.51;72.89
37892;BME280;45797;47.466;9.486;2022-11-11T17:28:04;97413.50;;;10.65;72.67
37892;BME280;45797;47.466;9.486;2022-11-11T17:33:29;97414.00;;;10.73;72.56
37892;BME280;45797;47.466;9.486;2022-11-11T17:38:50;97417.91;;;10.83;72.58
37892;BME280;45797;47.466;9.486;2022-11-11T17:44:09;97402.00;;;10.86;72.56
37892;BME280;45797;47.466;9.486;2022-11-11T17:49:28;97393.72;;;10.96;72.72
37892;BME280;45797;47.466;9.486;2022-11-11T17:54:57;97393.44;;;11.02;72.38
37892;BME280;45797;47.466;9.486;2022-11-11T18:00:17;97396.75;;;11.05;72.57
37892;BME280;45797;47.466;9.486;2022-11-11T18:05:36;97391.31;;;11.10;72.48
37892;BME280;45797;47.466;9.486;2022-11-11T18:11:04;97402.19;;;11.20;72.02
37892;BME280;45797;47.466;9.486;2022-11-11T18:16:24;97387.16;;;11.23;71.97
37892;BME280;45797;47.466;9.486;2022-11-11T18:21:43;97394.81;;;11.28;71.93
37892;BME280;45797;47.466;9.486;2022-11-11T18:27:03;97399.75;;;11.34;71.87
37892;BME280;45797;47.466;9.486;2022-11-11T18:32:24;97396.06;;;11.38;71.77
37892;BME280;45797;47.466;9.486;2022-11-11T18:37:44;97401.44;;;11.35;72.41
37892;BME280;45797;47.466;9.486;2022-11-11T18:43:04;97410.22;;;11.34;72.18
37892;BME280;45797;47.466;9.486;2022-11-11T18:48:24;97408.16;;;11.40;71.79
37892;BME280;45797;47.466;9.486;2022-11-11T18:53:51;97408.78;;;11.45;72.00
37892;BME280;45797;47.466;9.486;2022-11-11T18:59:12;97404.06;;;11.52;71.86
37892;BME280;45797;47.466;9.486;2022-11-11T19:04:39;97397.91;;;11.53;71.65
37892;BME280;45797;47.466;9.486;2022-11-11T19:09:59;97399.59;;;11.54;71.95
37892;BME280;45797;47.466;9.486;2022-11-11T19:15:18;97404.06;;;11.52;71.88
37892;BME280;45797;47.466;9.486;2022-11-11T19:20:47;97410.34;;;11.50;71.84
37892;BME280;45797;47.466;9.486;2022-11-11T19:26:06;97404.16;;;11.51;72.18
37892;BME280;45797;47.466;9.486;2022-11-11T19:31:37;97410.19;;;11.53;71.89
37892;BME280;45797;47.466;9.486;2022-11-11T19:36:58;97405.78;;;11.53;71.93
37892;BME280;45797;47.466;9.486;2022-11-11T19:42:18;97404.94;;;11.53;72.15
37892;BME280;45797;47.466;9.486;2022-11-11T19:47:39;97398.75;;;11.54;72.27
37892;BME280;45797;47.466;9.486;2022-11-11T19:52:57;97397.81;;;11.55;72.14
37892;BME280;45797;47.466;9.486;2022-11-11T19:58:16;97396.84;;;11.57;71.95
37892;BME280;45797;47.466;9.486;2022-11-11T20:03:47;97400.41;;;11.56;72.11
37892;BME280;45797;47.466;9.486;2022-11-11T20:09:07;97402.94;;;11.58;72.16
37892;BME280;45797;47.466;9.486;2022-11-11T20:14:26;97415.97;;;11.59;72.17
37892;BME280;45797;47.466;9.486;2022-11-11T20:19:45;97414.97;;;11.62;71.92
37892;BME280;45797;47.466;9.486;2022-11-11T20:25:04;97419.22;;;11.64;71.87
37892;BME280;45797;47.466;9.486;2022-11-11T20:30:25;97412.13;;;11.66;72.00
37892;BME280;45797;47.466;9.486;2022-11-11T20:35:44;97395.66;;;11.63;71.87
37892;BME280;45797;47.466;9.486;2022-11-11T20:41:14;97399.22;;;11.62;72.16
37892;BME280;45797;47.466;9.486;2022-11-11T20:46:35;97397.38;;;11.64;72.09
37892;BME280;45797;47.466;9.486;2022-11-11T20:51:54;97390.41;;;11.63;72.33
37892;BME280;45797;47.466;9.486;2022-11-11T20:57:14;97385.09;;;11.64;72.14
37892;BME280;45797;47.466;9.486;2022-11-11T21:02:39;97386.72;;;11.67;71.93
37892;BME280;45797;47.466;9.486;2022-11-11T21:08:01;97392.91;;;11.66;72.20
37892;BME280;45797;47.466;9.486;2022-11-11T21:13:19;97394.75;;;11.64;72.21
37892;BME280;45797;47.466;9.486;2022-11-11T21:18:48;97392.97;;;11.64;72.14
37892;BME280;45797;47.466;9.486;2022-11-11T21:24:08;97384.16;;;11.65;72.32
37892;BME280;45797;47.466;9.486;2022-11-11T21:29:27;97392.81;;;11.67;72.00
37892;BME280;45797;47.466;9.486;2022-11-11T21:34:47;97394.44;;;11.70;72.23
37892;BME280;45797;47.466;9.486;2022-11-11T21:40:15;97388.56;;;11.65;71.93
37892;BME280;45797;47.466;9.486;2022-11-11T21:45:36;97385.88;;;11.66;72.12
37892;BME280;45797;47.466;9.486;2022-11-11T21:51:19;97384.25;;;11.64;71.96
37892;BME280;45797;47.466;9.486;2022-11-11T21:56:49;97389.28;;;11.68;71.86
37892;BME280;45797;47.466;9.486;2022-11-11T22:02:08;97384.94;;;11.67;72.15
37892;BME280;45797;47.466;9.486;2022-11-11T22:07:36;97375.31;;;11.68;71.57
37892;BME280;45797;47.466;9.486;2022-11-11T22:12:58;97377.00;;;11.69;72.00
37892;BME280;45797;47.466;9.486;2022-11-11T22:18:18;97375.31;;;11.68;72.09
37892;BME280;45797;47.466;9.486;2022-11-11T22:23:38;97373.66;;;11.65;71.96
37892;BME280;45797;47.466;9.486;2022-11-11T22:28:58;97380.63;;;11.66;72.20
37892;BME280;45797;47.466;9.486;2022-11-11T22:34:28;97382.31;;;11.67;71.83
37892;BME280;45797;47.466;9.486;2022-11-11T22:39:49;97374.22;;;11.72;71.92
37892;BME280;45797;47.466;9.486;2022-11-11T22:45:07;97383.00;;;11.71;72.48
37892;BME280;45797;47.466;9.486;2022-11-11T22:50:27;97378.78;;;11.68;72.14
37892;BME280;45797;47.466;9.486;2022-11-11T22:55:48;97376.91;;;11.70;72.05
37892;BME280;45797;47.466;9.486;2022-11-11T23:06:33;97381.16;;;11.73;72.69
37892;BME280;45797;47.466;9.486;2022-11-11T23:11:57;97381.22;;;11.71;72.16
37892;BME280;45797;47.466;9.486;2022-11-11T23:17:16;97385.56;;;11.72;72.04
37892;BME280;45797;47.466;9.486;2022-11-11T23:22:35;97375.13;;;11.71;72.07
37892;BME280;45797;47.466;9.486;2022-11-11T23:27:53;97378.78;;;11.68;72.15
37892;BME280;45797;47.466;9.486;2022-11-11T23:33:12;97382.16;;;11.70;72.42
37892;BME280;45797;47.466;9.486;2022-11-11T23:38:31;97386.56;;;11.70;72.46
37892;BME280;45797;47.466;9.486;2022-11-11T23:43:52;97383.94;;;11.70;72.24
37892;BME280;45797;47.466;9.486;2022-11-11T23:49:11;97393.59;;;11.69;72.51
37892;BME280;45797;47.466;9.486;2022-11-11T23:54:32;97392.81;;;11.67;72.26
37892;BME280;45797;47.466;9.486;2022-11-11T23:59:53;97390.88;;;11.54;73.02
